createdAt,value
2023-01-25T00:00:07.421Z,19.03
2023-01-25T00:02:40.343Z,18.87
2023-01-25T00:05:10.548Z,18.00
2023-01-25T00:13:35.285Z,18.27
2023-01-25T00:16:05.777Z,20.53
2023-01-25T00:18:36.677Z,19.87
2023-01-25T00:21:21.720Z,18.27
2023-01-25T00:23:51.747Z,19.90
2023-01-25T00:27:20.073Z,18.60
2023-01-25T00:29:50.271Z,19.53
2023-01-25T00:32:17.336Z,19.03
2023-01-25T00:34:48.049Z,18.33
2023-01-25T00:37:50.709Z,19.53
2023-01-25T00:40:18.676Z,19.53
2023-01-25T00:42:45.840Z,18.93
2023-01-25T00:45:18.796Z,19.23
2023-01-25T00:47:48.895Z,18.30
2023-01-25T00:50:25.002Z,18.00
2023-01-25T00:52:54.495Z,19.47
2023-01-25T00:55:22.399Z,19.37
2023-01-25T00:57:55.289Z,17.40
2023-01-25T01:00:22.449Z,21.30
2023-01-25T01:02:50.514Z,19.37
2023-01-25T01:05:17.532Z,20.27
2023-01-25T01:07:49.614Z,19.87
2023-01-25T01:10:16.736Z,18.33
2023-01-25T01:12:43.820Z,17.50
2023-01-25T01:15:15.167Z,19.03
2023-01-25T01:17:42.265Z,18.37
2023-01-25T01:20:12.603Z,17.00
2023-01-25T01:22:39.715Z,17.83
2023-01-25T01:25:07.865Z,18.03
2023-01-25T01:27:38.067Z,16.87
2023-01-25T01:30:06.068Z,17.20
2023-01-25T01:32:33.496Z,15.00
2023-01-25T01:35:00.800Z,15.43
2023-01-25T01:37:33.823Z,14.63
2023-01-25T01:40:03.190Z,15.77
2023-01-25T01:42:30.315Z,16.07
2023-01-25T01:44:59.662Z,14.67
2023-01-25T01:47:40.020Z,14.90
2023-01-25T01:50:20.966Z,16.87
2023-01-25T01:52:51.996Z,15.53
2023-01-25T01:55:24.015Z,15.73
2023-01-25T01:57:59.068Z,13.73
2023-01-25T02:00:30.738Z,14.83
2023-01-25T02:02:58.715Z,15.60
2023-01-25T02:05:35.784Z,14.50
2023-01-25T02:08:07.748Z,16.47
2023-01-25T02:10:35.858Z,15.43
2023-01-25T02:13:02.725Z,14.23
2023-01-25T02:15:43.218Z,15.23
2023-01-25T02:18:11.247Z,15.60
2023-01-25T02:20:46.953Z,13.73
2023-01-25T02:23:36.193Z,14.60
2023-01-25T02:26:07.210Z,15.63
2023-01-25T02:28:50.073Z,14.23
2023-01-25T02:31:17.818Z,13.83
2023-01-25T02:33:44.681Z,16.00
2023-01-25T02:36:11.258Z,13.80
2023-01-25T02:38:43.051Z,16.30
2023-01-25T02:41:32.743Z,15.23
2023-01-25T02:44:02.742Z,14.97
2023-01-25T02:46:32.482Z,15.80
2023-01-25T02:49:00.551Z,16.03
2023-01-25T02:51:31.603Z,17.93
2023-01-25T02:53:59.080Z,14.13
2023-01-25T02:56:27.469Z,15.63
2023-01-25T02:58:54.326Z,13.50
2023-01-25T03:01:21.618Z,16.20
2023-01-25T03:03:48.368Z,16.07
2023-01-25T03:06:17.599Z,17.03
2023-01-25T03:08:44.442Z,19.10
2023-01-25T03:11:11.121Z,16.90
2023-01-25T03:13:38.569Z,17.07
2023-01-25T03:16:09.229Z,14.97
2023-01-25T03:18:36.737Z,17.17
2023-01-25T03:21:15.549Z,17.77
2023-01-25T03:23:43.751Z,16.97
2023-01-25T03:26:15.993Z,16.23
2023-01-25T03:28:58.577Z,15.60
2023-01-25T03:31:25.306Z,18.37
2023-01-25T03:33:52.105Z,15.47
2023-01-25T03:36:21.838Z,16.23
2023-01-25T03:38:48.552Z,18.10
2023-01-25T03:41:15.408Z,16.03
2023-01-25T03:43:42.908Z,19.23
2023-01-25T03:46:09.689Z,19.90
2023-01-25T03:48:37.712Z,17.53
2023-01-25T03:51:04.972Z,20.83
2023-01-25T03:53:32.798Z,18.77
2023-01-25T03:56:09.456Z,18.93
2023-01-25T03:58:38.677Z,20.57
2023-01-25T04:01:07.807Z,23.13
2023-01-25T04:03:35.247Z,20.17
2023-01-25T04:06:02.446Z,23.57
2023-01-25T04:08:31.135Z,20.47
2023-01-25T04:11:05.607Z,21.20
2023-01-25T04:13:35.105Z,22.27
2023-01-25T04:16:02.653Z,20.03
2023-01-25T04:18:47.683Z,21.20
2023-01-25T04:21:14.362Z,17.50
2023-01-25T04:23:41.137Z,20.87
2023-01-25T04:26:10.188Z,17.37
2023-01-25T04:28:37.129Z,18.33
2023-01-25T04:31:05.940Z,17.93
2023-01-25T04:33:36.939Z,17.77
2023-01-25T04:36:03.995Z,18.80
2023-01-25T04:38:31.004Z,19.10
2023-01-25T04:40:58.109Z,18.20
2023-01-25T04:43:26.205Z,21.30
2023-01-25T04:45:57.272Z,17.37
2023-01-25T04:48:29.853Z,17.20
2023-01-25T04:51:00.513Z,15.53
2023-01-25T04:53:27.352Z,15.00
2023-01-25T04:55:58.751Z,15.57
2023-01-25T04:58:26.599Z,14.30
2023-01-25T05:00:53.693Z,15.23
2023-01-25T05:03:20.467Z,13.93
2023-01-25T05:05:48.234Z,13.17
2023-01-25T05:08:18.866Z,14.27
2023-01-25T05:10:45.955Z,12.83
2023-01-25T05:13:35.879Z,12.73
2023-01-25T05:16:22.909Z,11.83
2023-01-25T05:18:49.604Z,10.67
2023-01-25T05:21:44.966Z,18.93
2023-01-25T05:24:13.383Z,11.73
2023-01-25T05:26:58.656Z,13.30
2023-01-25T05:29:26.840Z,10.83
2023-01-25T05:31:59.753Z,12.53
2023-01-25T05:34:27.076Z,11.33
2023-01-25T05:36:54.186Z,11.57
2023-01-25T05:39:21.089Z,12.03
2023-01-25T05:41:49.197Z,11.00
2023-01-25T05:44:16.300Z,12.23
2023-01-25T05:46:48.401Z,11.40
2023-01-25T05:49:18.090Z,11.40
2023-01-25T05:51:46.167Z,11.87
2023-01-25T05:54:15.906Z,13.07
2023-01-25T05:56:50.157Z,13.67
2023-01-25T05:59:18.279Z,13.87
2023-01-25T06:01:45.391Z,12.80
2023-01-25T06:04:15.652Z,13.60
2023-01-25T06:06:42.596Z,14.40
2023-01-25T06:09:12.055Z,13.13
2023-01-25T06:11:39.473Z,13.80
2023-01-25T06:14:06.127Z,14.27
2023-01-25T06:16:33.145Z,16.03
2023-01-25T06:18:59.789Z,15.63
2023-01-25T06:21:45.053Z,14.90
2023-01-25T06:24:11.808Z,13.87
2023-01-25T06:26:38.437Z,14.80
2023-01-25T06:29:06.742Z,15.17
2023-01-25T06:31:34.707Z,15.40
2023-01-25T06:34:04.407Z,13.70
2023-01-25T06:36:31.899Z,15.17
2023-01-25T06:38:58.571Z,14.90
2023-01-25T06:41:25.215Z,15.97
2023-01-25T06:43:52.684Z,14.80
2023-01-25T06:46:19.958Z,16.17
2023-01-25T06:48:46.559Z,15.33
2023-01-25T06:51:14.376Z,15.37
2023-01-25T06:53:43.438Z,14.40
2023-01-25T06:56:12.014Z,15.33
2023-01-25T06:58:39.874Z,15.30
2023-01-25T07:01:21.166Z,17.60
2023-01-25T07:03:52.043Z,16.57
2023-01-25T07:06:19.374Z,18.37
2023-01-25T07:08:46.736Z,17.27
2023-01-25T07:11:14.453Z,16.63
2023-01-25T07:13:42.974Z,15.50
2023-01-25T07:16:13.436Z,16.20
2023-01-25T07:18:40.483Z,17.43
2023-01-25T07:21:18.435Z,15.63
2023-01-25T07:23:45.125Z,15.00
2023-01-25T07:26:20.406Z,14.90
2023-01-25T07:28:48.444Z,12.70
2023-01-25T07:31:16.909Z,14.40
2023-01-25T07:33:43.868Z,13.43
2023-01-25T07:36:11.445Z,14.03
2023-01-25T07:38:38.333Z,12.57
2023-01-25T07:41:05.094Z,11.97
2023-01-25T07:43:32.158Z,14.00
2023-01-25T07:46:12.471Z,13.33
2023-01-25T07:48:40.417Z,13.80
2023-01-25T07:51:13.043Z,16.43
2023-01-25T07:53:41.571Z,15.20
2023-01-25T07:56:09.804Z,20.60
2023-01-25T07:58:36.876Z,15.27
2023-01-25T08:01:08.662Z,14.00
2023-01-25T08:03:35.796Z,14.07
2023-01-25T08:06:05.226Z,12.63
2023-01-25T08:08:37.196Z,13.07
2023-01-25T08:11:14.227Z,12.50
2023-01-25T08:13:41.611Z,14.57
2023-01-25T08:16:08.868Z,15.27
2023-01-25T08:18:36.706Z,13.90
2023-01-25T08:21:03.752Z,14.33
2023-01-25T08:23:30.627Z,13.87
2023-01-25T08:26:08.904Z,15.37
2023-01-25T08:28:38.216Z,14.27
2023-01-25T08:31:18.485Z,18.83
2023-01-25T08:33:46.637Z,16.00
2023-01-25T08:36:14.984Z,15.87
2023-01-25T08:38:41.665Z,15.20
2023-01-25T08:41:10.651Z,15.77
2023-01-25T08:43:37.731Z,15.97
2023-01-25T08:46:04.819Z,18.53
2023-01-25T08:48:31.905Z,16.23
2023-01-25T08:50:59.124Z,16.83
2023-01-25T08:53:28.578Z,17.07
2023-01-25T08:55:55.195Z,18.07
2023-01-25T08:58:22.402Z,18.67
2023-01-25T09:00:49.535Z,17.07
2023-01-25T09:03:18.017Z,17.83
2023-01-25T09:05:44.805Z,17.57
2023-01-25T09:08:11.608Z,18.37
2023-01-25T09:10:38.287Z,19.37
2023-01-25T09:13:07.566Z,19.13
2023-01-25T09:15:35.117Z,19.47
2023-01-25T09:18:01.763Z,19.20
2023-01-25T09:20:29.448Z,19.63
2023-01-25T09:22:59.663Z,20.83
2023-01-25T09:25:26.355Z,19.80
2023-01-25T09:27:52.996Z,19.70
2023-01-25T09:30:19.873Z,21.50
2023-01-25T09:32:52.518Z,19.53
2023-01-25T09:35:19.175Z,19.10
2023-01-25T09:37:50.757Z,20.40
2023-01-25T09:40:23.517Z,20.60
2023-01-25T09:43:00.360Z,21.37
2023-01-25T09:45:36.958Z,20.83
2023-01-25T09:48:31.806Z,20.10
2023-01-25T09:51:10.694Z,21.50
2023-01-25T09:53:40.967Z,21.20
2023-01-25T09:56:19.779Z,22.60
2023-01-25T09:58:48.699Z,22.53
2023-01-25T10:01:37.631Z,22.10
2023-01-25T10:04:13.007Z,23.20
2023-01-25T10:06:46.036Z,24.63
2023-01-25T10:09:30.141Z,22.83
2023-01-25T10:12:03.717Z,23.23
2023-01-25T10:14:35.444Z,22.50
2023-01-25T10:17:35.931Z,23.57
2023-01-25T10:20:08.694Z,23.03
2023-01-25T10:22:47.371Z,22.50
2023-01-25T10:25:22.842Z,26.07
2023-01-25T10:28:07.020Z,28.73
2023-01-25T10:30:51.024Z,25.23
2023-01-25T10:33:19.983Z,29.50
2023-01-25T10:35:49.552Z,26.33
2023-01-25T10:38:21.411Z,25.53
2023-01-25T10:41:11.921Z,27.57
2023-01-25T10:43:38.873Z,27.63
2023-01-25T10:46:17.759Z,27.57
2023-01-25T10:48:44.445Z,27.97
2023-01-25T10:51:32.212Z,30.83
2023-01-25T10:54:01.876Z,28.07
2023-01-25T10:56:29.516Z,28.17
2023-01-25T10:59:13.931Z,27.80
2023-01-25T11:01:40.662Z,29.67
2023-01-25T11:04:24.650Z,30.93
2023-01-25T11:06:52.439Z,29.13
2023-01-25T11:09:21.776Z,28.60
2023-01-25T11:12:00.489Z,30.10
2023-01-25T11:14:30.482Z,28.83
2023-01-25T11:16:59.045Z,29.77
2023-01-25T11:19:38.980Z,30.30
2023-01-25T11:22:23.939Z,31.00
2023-01-25T11:24:50.651Z,30.43
2023-01-25T11:27:23.742Z,32.50
2023-01-25T11:30:14.508Z,30.80
2023-01-25T11:32:41.560Z,31.43
2023-01-25T11:35:16.370Z,29.57
2023-01-25T11:38:14.040Z,31.97
2023-01-25T11:40:51.293Z,30.23
2023-01-25T11:44:08.418Z,29.90
2023-01-25T11:46:59.455Z,30.70
2023-01-25T11:49:38.420Z,28.73
2023-01-25T11:52:31.742Z,30.33
2023-01-25T11:55:24.326Z,31.20
2023-01-25T11:58:10.246Z,29.07
2023-01-25T12:00:48.506Z,28.10
2023-01-25T12:03:36.961Z,27.33
2023-01-25T12:06:15.250Z,27.30
2023-01-25T12:09:15.685Z,26.43
2023-01-25T12:11:57.324Z,27.27
2023-01-25T12:14:31.943Z,27.33
2023-01-25T12:17:06.650Z,25.83
2023-01-25T12:19:46.005Z,27.70
2023-01-25T12:23:15.480Z,26.70
2023-01-25T12:25:50.747Z,25.27
2023-01-25T12:28:25.408Z,25.57
2023-01-25T12:31:14.440Z,24.93
2023-01-25T12:33:49.566Z,24.53
2023-01-25T12:36:27.232Z,23.57
2023-01-25T12:39:12.304Z,22.83
2023-01-25T12:42:00.126Z,23.00
2023-01-25T12:44:36.729Z,23.23
2023-01-25T12:47:10.369Z,22.20
2023-01-25T12:49:46.432Z,22.00
2023-01-25T12:52:30.104Z,21.43
2023-01-25T12:55:01.418Z,21.83
2023-01-25T12:57:52.192Z,22.17
2023-01-25T13:00:39.524Z,21.53
2023-01-25T13:03:41.403Z,21.60
2023-01-25T13:06:52.641Z,23.67
2023-01-25T13:09:27.906Z,27.73
2023-01-25T13:11:54.646Z,23.43
2023-01-25T13:14:51.011Z,22.73
2023-01-25T13:17:35.689Z,21.87
2023-01-25T13:20:23.367Z,23.13
2023-01-25T13:22:51.888Z,23.10
2023-01-25T13:25:23.392Z,22.67
2023-01-25T13:27:50.251Z,22.60
2023-01-25T13:30:19.604Z,21.60
2023-01-25T13:32:49.205Z,21.33
2023-01-25T13:35:33.451Z,22.10
2023-01-25T13:38:24.478Z,22.70
2023-01-25T13:41:10.680Z,23.40
2023-01-25T13:43:38.712Z,22.63
2023-01-25T13:46:08.355Z,22.17
2023-01-25T13:48:38.238Z,21.93
2023-01-25T13:51:10.154Z,21.63
2023-01-25T13:53:39.561Z,21.40
2023-01-25T13:56:33.487Z,20.63
2023-01-25T13:59:00.750Z,23.20
2023-01-25T14:01:30.386Z,24.47
2023-01-25T14:04:01.822Z,23.13
2023-01-25T14:06:39.399Z,22.87
2023-01-25T14:09:34.082Z,23.07
2023-01-25T14:12:08.276Z,23.10
2023-01-25T14:14:35.720Z,23.90
2023-01-25T14:17:15.882Z,23.77
2023-01-25T14:19:44.657Z,24.03
2023-01-25T14:22:30.244Z,25.13
2023-01-25T14:25:20.667Z,23.77
2023-01-25T14:27:56.032Z,23.77
2023-01-25T14:30:30.679Z,22.20
2023-01-25T14:33:00.653Z,23.23
2023-01-25T14:35:43.097Z,23.27
2023-01-25T14:38:19.046Z,25.10
2023-01-25T14:40:47.595Z,26.80
2023-01-25T14:43:15.904Z,26.53
2023-01-25T14:45:42.699Z,25.60
2023-01-25T14:48:41.485Z,27.13
2023-01-25T14:51:19.309Z,29.23
2023-01-25T14:53:49.705Z,27.90
2023-01-25T14:56:21.819Z,29.60
2023-01-25T14:58:58.939Z,31.23
2023-01-25T15:01:30.721Z,31.87
2023-01-25T15:03:57.591Z,33.60
2023-01-25T15:06:24.584Z,31.67
2023-01-25T15:08:51.321Z,32.83
2023-01-25T15:11:49.264Z,33.53
2023-01-25T15:14:19.028Z,33.00
2023-01-25T15:16:46.359Z,28.93
2023-01-25T15:19:25.194Z,30.27
2023-01-25T15:21:53.653Z,34.30
2023-01-25T15:24:20.399Z,36.13
2023-01-25T15:26:51.514Z,36.67
2023-01-25T15:29:25.705Z,34.13
2023-01-25T15:31:54.328Z,31.60
2023-01-25T15:34:24.956Z,33.40
2023-01-25T15:36:52.096Z,33.83
2023-01-25T15:39:20.358Z,35.73
2023-01-25T15:41:47.595Z,34.33
2023-01-25T15:44:15.494Z,37.40
2023-01-25T15:46:45.207Z,41.30
2023-01-25T15:49:18.799Z,37.40
2023-01-25T15:51:45.844Z,38.53
2023-01-25T15:54:12.680Z,37.90
2023-01-25T15:56:41.763Z,39.93
2023-01-25T15:59:15.653Z,40.53
2023-01-25T16:01:42.284Z,41.07
2023-01-25T16:04:10.670Z,36.13
2023-01-25T16:06:50.734Z,39.43
2023-01-25T16:09:17.393Z,38.43
2023-01-25T16:11:45.034Z,35.97
2023-01-25T16:14:11.857Z,17.70
2023-01-25T16:16:43.997Z,35.47
2023-01-25T16:19:14.070Z,37.20
2023-01-25T16:21:41.874Z,37.30
2023-01-25T16:24:10.484Z,36.80
2023-01-25T16:26:42.791Z,38.63
2023-01-25T16:29:11.316Z,39.67
2023-01-25T16:31:38.113Z,38.30
2023-01-25T16:34:04.852Z,31.80
2023-01-25T16:36:31.568Z,29.53
2023-01-25T16:39:19.366Z,27.60
2023-01-25T16:41:46.954Z,28.77
2023-01-25T16:44:13.614Z,32.10
2023-01-25T16:46:40.534Z,29.10
2023-01-25T16:49:10.492Z,32.27
2023-01-25T16:51:38.011Z,23.07
2023-01-25T16:54:04.666Z,28.93
2023-01-25T16:56:33.144Z,28.97
2023-01-25T16:59:05.355Z,35.20
2023-01-25T17:01:32.745Z,27.43
2023-01-25T17:03:59.556Z,30.90
2023-01-25T17:06:29.190Z,26.77
2023-01-25T17:08:58.874Z,27.83
2023-01-25T17:11:26.113Z,27.37
2023-01-25T17:13:55.571Z,24.43
2023-01-25T17:16:26.220Z,25.70
2023-01-25T17:19:05.567Z,25.80
2023-01-25T17:21:33.643Z,24.87
2023-01-25T17:24:01.806Z,25.67
2023-01-25T17:26:30.314Z,25.23
2023-01-25T17:28:58.584Z,25.90
2023-01-25T17:31:31.044Z,25.53
2023-01-25T17:34:00.857Z,28.87
2023-01-25T17:36:27.598Z,27.40
2023-01-25T17:38:54.214Z,27.07
2023-01-25T17:41:21.040Z,27.60
2023-01-25T17:43:52.568Z,29.60
2023-01-25T17:46:29.783Z,28.67
2023-01-25T17:48:57.823Z,29.00
2023-01-25T17:51:25.342Z,28.23
2023-01-25T17:53:52.901Z,32.70
2023-01-25T17:56:20.026Z,25.97
2023-01-25T17:58:46.684Z,30.13
2023-01-25T18:01:33.566Z,30.53
2023-01-25T18:04:00.771Z,30.07
2023-01-25T18:06:30.248Z,31.50
2023-01-25T18:08:59.916Z,35.80
2023-01-25T18:11:30.835Z,31.03
2023-01-25T18:13:59.844Z,33.00
2023-01-25T18:16:29.610Z,35.73
2023-01-25T18:18:57.777Z,40.13
2023-01-25T18:21:27.584Z,39.40
2023-01-25T18:23:56.383Z,40.53
2023-01-25T18:26:28.759Z,38.67
2023-01-25T18:29:01.142Z,37.37
2023-01-25T18:31:28.031Z,40.00
2023-01-25T18:33:54.862Z,38.47
2023-01-25T18:36:21.528Z,43.53
2023-01-25T18:38:48.130Z,38.27
2023-01-25T18:41:14.833Z,35.30
2023-01-25T18:43:41.481Z,40.53
2023-01-25T18:46:09.128Z,37.00
2023-01-25T18:48:36.179Z,38.60
2023-01-25T18:51:08.945Z,38.23
2023-01-25T18:53:37.817Z,44.23
2023-01-25T18:56:13.227Z,49.40
2023-01-25T18:58:40.939Z,48.93
2023-01-25T19:01:21.858Z,50.33
2023-01-25T19:03:49.772Z,52.83
2023-01-25T19:06:18.685Z,50.90
2023-01-25T19:08:49.630Z,52.83
2023-01-25T19:11:19.845Z,55.17
2023-01-25T19:13:46.706Z,56.03
2023-01-25T19:16:19.618Z,55.10
2023-01-25T19:18:49.929Z,54.20
2023-01-25T19:21:25.205Z,56.80
2023-01-25T19:23:53.155Z,57.47
2023-01-25T19:26:21.974Z,55.70
2023-01-25T19:28:48.668Z,53.63
2023-01-25T19:31:19.210Z,54.17
2023-01-25T19:33:46.919Z,58.40
2023-01-25T19:36:18.289Z,59.23
2023-01-25T19:38:46.779Z,57.63
2023-01-25T19:41:24.903Z,58.40
2023-01-25T19:43:56.337Z,56.83
2023-01-25T19:46:26.679Z,57.50
2023-01-25T19:48:54.386Z,54.97
2023-01-25T19:51:29.913Z,56.77
2023-01-25T19:54:03.286Z,54.13
2023-01-25T19:56:35.625Z,53.97
2023-01-25T19:59:04.388Z,61.23
2023-01-25T20:01:31.434Z,61.00
2023-01-25T20:03:58.782Z,55.77
2023-01-25T20:06:26.768Z,54.97
2023-01-25T20:08:53.923Z,54.53
2023-01-25T20:11:23.861Z,57.40
2023-01-25T20:13:53.762Z,54.70
2023-01-25T20:16:20.639Z,52.17
2023-01-25T20:18:48.730Z,55.27
2023-01-25T20:21:23.494Z,47.60
2023-01-25T20:23:53.253Z,51.43
2023-01-25T20:26:23.126Z,46.60
2023-01-25T20:28:51.606Z,46.53
2023-01-25T20:31:24.200Z,47.07
2023-01-25T20:33:52.805Z,43.50
2023-01-25T20:36:19.426Z,43.77
2023-01-25T20:38:46.550Z,47.47
2023-01-25T20:41:15.545Z,47.63
2023-01-25T20:43:57.247Z,47.47
2023-01-25T20:46:24.668Z,45.57
2023-01-25T20:48:53.292Z,48.00
2023-01-25T20:51:21.498Z,48.37
2023-01-25T20:53:50.134Z,48.97
2023-01-25T20:56:17.907Z,46.97
2023-01-25T20:58:50.168Z,48.73
2023-01-25T21:01:20.295Z,47.03
2023-01-25T21:03:47.520Z,50.57
2023-01-25T21:06:14.323Z,53.37
2023-01-25T21:08:41.026Z,51.70
2023-01-25T21:11:08.599Z,50.23
2023-01-25T21:13:35.351Z,55.37
2023-01-25T21:16:12.250Z,56.17
2023-01-25T21:18:41.887Z,57.00
2023-01-25T21:21:20.547Z,59.03
2023-01-25T21:23:49.089Z,59.93
2023-01-25T21:26:21.366Z,62.63
2023-01-25T21:28:48.774Z,58.97
2023-01-25T21:31:18.138Z,62.00
2023-01-25T21:33:45.073Z,59.00
2023-01-25T21:36:15.903Z,61.30
2023-01-25T21:38:50.671Z,59.33
2023-01-25T21:41:38.539Z,62.83
2023-01-25T21:44:23.900Z,57.87
2023-01-25T21:49:56.330Z,61.07
2023-01-25T21:52:23.016Z,61.43
2023-01-25T21:54:49.676Z,62.57
2023-01-25T21:57:16.297Z,56.63
2023-01-25T21:59:42.950Z,63.57
2023-01-25T22:02:13.850Z,60.97
2023-01-25T22:04:40.540Z,62.37
2023-01-25T22:07:08.757Z,60.40
2023-01-25T22:09:35.716Z,66.33
2023-01-25T22:12:02.318Z,68.40
2023-01-25T22:14:29.176Z,69.43
2023-01-25T22:16:58.558Z,66.63
2023-01-25T22:19:25.354Z,67.93
2023-01-25T22:21:52.113Z,68.83
2023-01-25T22:24:18.839Z,67.33
2023-01-25T22:26:45.509Z,69.23
2023-01-25T22:29:13.139Z,64.20
2023-01-25T22:31:39.994Z,65.50
2023-01-25T22:34:07.134Z,62.27
2023-01-25T22:36:34.498Z,63.00
2023-01-25T22:39:01.129Z,65.17
2023-01-25T22:41:30.633Z,63.20
2023-01-25T22:43:57.915Z,67.80
2023-01-25T22:46:27.233Z,63.47
2023-01-25T22:48:54.072Z,66.53
2023-01-25T22:51:25.630Z,60.13
2023-01-25T22:53:53.582Z,65.20
2023-01-25T22:56:34.520Z,62.97
2023-01-25T22:59:01.514Z,62.73
2023-01-25T23:01:33.550Z,65.47
2023-01-25T23:04:00.989Z,64.20
2023-01-25T23:06:30.366Z,60.97
2023-01-25T23:09:01.516Z,60.03
2023-01-25T23:11:35.616Z,65.00
2023-01-25T23:14:25.874Z,61.43
2023-01-25T23:16:52.625Z,63.37
2023-01-25T23:19:19.322Z,62.67
2023-01-25T23:21:45.965Z,64.80
2023-01-25T23:24:12.987Z,66.77
2023-01-25T23:26:40.827Z,63.90
2023-01-25T23:29:11.735Z,64.93
2023-01-25T23:31:38.505Z,63.37
2023-01-25T23:34:06.790Z,59.03
2023-01-25T23:36:35.525Z,58.37
2023-01-25T23:39:02.928Z,52.93
2023-01-25T23:41:30.235Z,54.90
2023-01-25T23:43:57.875Z,55.67
2023-01-25T23:46:25.522Z,53.80
2023-01-25T23:48:52.431Z,51.93
2023-01-25T23:51:19.943Z,57.33
2023-01-25T23:53:47.293Z,51.50
2023-01-25T23:56:19.549Z,54.20
2023-01-25T23:58:46.479Z,49.80
